createdAt,value
2019-03-24T00:01:18.686Z,176.45
2019-03-24T00:03:46.472Z,177.87
2019-03-24T00:06:15.235Z,177.90
2019-03-24T00:08:43.961Z,178.57
2019-03-24T00:11:11.614Z,177.50
2019-03-24T00:13:40.352Z,178.82
2019-03-24T00:16:07.932Z,180.57
2019-03-24T00:18:35.610Z,175.90
2019-03-24T00:21:03.281Z,176.27
2019-03-24T00:23:31.007Z,183.68
2019-03-24T00:26:00.211Z,178.42
2019-03-24T00:28:27.812Z,179.70
2019-03-24T00:30:55.409Z,175.90
2019-03-24T00:33:27.240Z,176.30
2019-03-24T00:35:55.920Z,176.05
2019-03-24T00:38:23.698Z,174.77
2019-03-24T00:40:51.327Z,176.85
2019-03-24T00:43:18.911Z,177.87
2019-03-24T00:45:46.684Z,177.30
2019-03-24T00:48:15.472Z,176.70
2019-03-24T00:50:43.166Z,176.35
2019-03-24T00:53:11.894Z,180.90
2019-03-24T00:55:39.532Z,180.50
2019-03-24T00:58:07.291Z,179.20
2019-03-24T01:00:48.913Z,179.23
2019-03-24T01:03:17.678Z,179.85
2019-03-24T01:05:45.590Z,177.97
2019-03-24T01:08:14.213Z,177.78
2019-03-24T01:10:41.767Z,178.85
2019-03-24T01:13:11.168Z,179.82
2019-03-24T01:15:47.388Z,179.05
2019-03-24T01:18:08.823Z,179.57
2019-03-24T01:20:37.516Z,178.72
2019-03-24T01:23:06.465Z,181.15
2019-03-24T01:25:34.065Z,180.75
2019-03-24T01:28:01.656Z,183.07
2019-03-24T01:30:29.407Z,180.72
2019-03-24T01:32:57.318Z,179.42
2019-03-24T01:35:25.987Z,181.95
2019-03-24T01:37:53.629Z,181.22
2019-03-24T01:40:21.806Z,189.18
2019-03-24T01:42:49.403Z,179.07
2019-03-24T01:45:17.095Z,179.75
2019-03-24T01:47:46.103Z,182.72
2019-03-24T01:50:13.863Z,181.52
2019-03-24T01:52:41.771Z,185.12
2019-03-24T01:55:09.758Z,180.37
2019-03-24T01:57:37.331Z,180.60
2019-03-24T02:00:05.409Z,180.25
2019-03-24T02:02:35.435Z,179.05
2019-03-24T02:05:03.481Z,179.32
2019-03-24T02:07:31.124Z,184.43
2019-03-24T02:09:59.060Z,181.47
2019-03-24T02:12:26.647Z,183.60
2019-03-24T02:14:54.649Z,182.65
2019-03-24T02:17:22.215Z,183.78
2019-03-24T02:19:49.811Z,183.75
2019-03-24T02:22:17.805Z,179.85
2019-03-24T02:24:45.680Z,185.65
2019-03-24T02:27:13.272Z,181.65
2019-03-24T02:29:41.452Z,182.60
2019-03-24T02:32:09.089Z,180.32
2019-03-24T02:34:38.118Z,187.92
2019-03-24T02:37:06.125Z,183.00
2019-03-24T02:39:33.929Z,183.68
2019-03-24T02:42:02.067Z,184.87
2019-03-24T02:44:29.714Z,181.75
2019-03-24T02:46:57.423Z,181.30
2019-03-24T02:49:26.334Z,182.50
2019-03-24T02:51:54.043Z,183.78
2019-03-24T02:54:22.148Z,180.70
2019-03-24T02:56:50.613Z,182.75
2019-03-24T02:59:18.649Z,184.52
2019-03-24T03:01:46.521Z,184.97
2019-03-24T03:04:15.197Z,181.75
2019-03-24T03:06:44.125Z,182.95
2019-03-24T03:09:12.036Z,181.57
2019-03-24T03:11:39.817Z,189.95
2019-03-24T03:14:07.455Z,185.15
2019-03-24T03:16:38.661Z,187.90
2019-03-24T03:19:04.558Z,190.28
2019-03-24T03:21:32.288Z,185.40
2019-03-24T03:24:00.571Z,195.85
2019-03-24T03:26:28.217Z,183.32
2019-03-24T03:28:55.853Z,187.70
2019-03-24T03:31:23.419Z,192.37
2019-03-24T03:33:51.202Z,186.92
2019-03-24T03:36:19.876Z,189.37
2019-03-24T03:38:47.940Z,189.52
2019-03-24T03:41:15.623Z,193.22
2019-03-24T03:43:43.254Z,199.40
2019-03-24T03:46:11.537Z,191.82
2019-03-24T03:48:39.491Z,189.30
2019-03-24T03:51:07.156Z,200.53
2019-03-24T03:53:35.181Z,189.00
2019-03-24T03:56:02.805Z,191.80
2019-03-24T03:58:30.565Z,200.15
2019-03-24T04:00:58.559Z,195.80
2019-03-24T04:03:26.222Z,194.30
2019-03-24T04:05:54.027Z,191.07
2019-03-24T04:08:21.819Z,190.35
2019-03-24T04:10:49.581Z,195.15
2019-03-24T04:13:17.571Z,200.32
2019-03-24T04:15:45.587Z,202.62
2019-03-24T04:18:13.154Z,198.43
2019-03-24T04:20:40.786Z,202.28
2019-03-24T04:23:09.076Z,195.57
2019-03-24T04:25:37.095Z,196.05
2019-03-24T04:28:04.775Z,192.05
2019-03-24T04:30:32.914Z,200.62
2019-03-24T04:33:01.500Z,198.55
2019-03-24T04:35:29.241Z,199.70
2019-03-24T04:37:56.822Z,214.53
2019-03-24T04:40:24.377Z,202.60
2019-03-24T04:42:52.569Z,197.22
2019-03-24T04:45:20.674Z,196.72
2019-03-24T04:47:48.344Z,193.90
2019-03-24T04:50:15.953Z,201.10
2019-03-24T04:52:44.069Z,195.45
2019-03-24T04:55:11.775Z,198.57
2019-03-24T04:57:39.367Z,209.12
2019-03-24T05:00:07.764Z,198.87
2019-03-24T05:02:35.962Z,195.12
2019-03-24T05:05:03.750Z,196.20
2019-03-24T05:07:31.567Z,189.30
2019-03-24T05:09:59.603Z,200.68
2019-03-24T05:12:27.198Z,188.90
2019-03-24T05:14:55.243Z,194.57
2019-03-24T05:17:26.994Z,192.62
2019-03-24T05:19:52.340Z,193.90
2019-03-24T05:22:21.716Z,198.35
2019-03-24T05:24:49.913Z,188.82
2019-03-24T05:27:17.635Z,206.80
2019-03-24T05:29:45.474Z,199.57
2019-03-24T05:32:13.048Z,198.28
2019-03-24T05:34:40.812Z,202.25
2019-03-24T05:37:08.387Z,199.85
2019-03-24T05:39:35.964Z,194.37
2019-03-24T05:42:03.783Z,187.90
2019-03-24T05:44:31.366Z,207.55
2019-03-24T05:46:59.227Z,202.68
2019-03-24T05:49:26.966Z,194.43
2019-03-24T05:51:54.530Z,194.07
2019-03-24T05:54:22.284Z,197.02
2019-03-24T05:56:50.026Z,198.25
2019-03-24T05:59:17.596Z,197.57
2019-03-24T06:01:45.285Z,204.32
2019-03-24T06:04:13.315Z,213.70
2019-03-24T06:06:41.061Z,212.05
2019-03-24T06:09:08.632Z,202.20
2019-03-24T06:11:36.264Z,197.00
2019-03-24T06:14:04.016Z,200.13
2019-03-24T06:16:31.679Z,200.53
2019-03-24T06:19:00.197Z,207.07
2019-03-24T06:21:27.774Z,202.75
2019-03-24T06:23:55.556Z,198.47
2019-03-24T06:26:23.933Z,200.82
2019-03-24T06:28:51.527Z,202.10
2019-03-24T06:31:19.097Z,192.45
2019-03-24T06:33:47.153Z,191.35
2019-03-24T06:36:14.734Z,193.85
2019-03-24T06:38:42.473Z,191.77
2019-03-24T06:41:10.462Z,197.13
2019-03-24T06:43:38.119Z,188.68
2019-03-24T06:46:05.700Z,191.40
2019-03-24T06:48:34.887Z,192.82
2019-03-24T06:51:02.444Z,198.68
2019-03-24T06:53:30.134Z,193.78
2019-03-24T06:55:58.077Z,190.18
2019-03-24T06:58:25.838Z,192.37
2019-03-24T07:00:53.433Z,191.47
2019-03-24T07:03:21.068Z,193.28
2019-03-24T07:05:49.745Z,191.77
2019-03-24T07:08:17.496Z,185.35
2019-03-24T07:10:46.126Z,192.72
2019-03-24T07:13:13.957Z,187.77
2019-03-24T07:15:41.541Z,188.82
2019-03-24T07:18:09.142Z,189.20
2019-03-24T07:20:36.830Z,189.10
2019-03-24T07:23:04.451Z,187.20
2019-03-24T07:25:32.531Z,189.75
2019-03-24T07:28:00.211Z,191.73
2019-03-24T07:30:27.894Z,189.97
2019-03-24T07:32:56.048Z,188.52
2019-03-24T07:35:23.728Z,185.15
2019-03-24T07:37:51.442Z,189.60
2019-03-24T07:40:19.349Z,188.00
2019-03-24T07:42:47.083Z,185.67
2019-03-24T07:45:15.669Z,182.10
2019-03-24T07:47:45.448Z,183.82
2019-03-24T07:50:13.831Z,187.03
2019-03-24T07:52:41.935Z,185.30
2019-03-24T07:55:09.816Z,181.63
2019-03-24T07:57:37.503Z,187.72
2019-03-24T08:00:06.375Z,189.67
2019-03-24T08:02:34.406Z,185.32
2019-03-24T08:05:02.112Z,185.90
2019-03-24T08:07:33.363Z,186.82
2019-03-24T08:10:01.020Z,178.60
2019-03-24T08:12:28.572Z,184.95
2019-03-24T08:14:57.067Z,183.62
2019-03-24T08:17:25.904Z,182.07
2019-03-24T08:19:53.648Z,187.10
2019-03-24T08:22:21.843Z,189.28
2019-03-24T08:24:49.442Z,185.75
2019-03-24T08:27:18.118Z,184.28
2019-03-24T08:29:45.943Z,186.15
2019-03-24T08:32:13.619Z,189.85
2019-03-24T08:34:41.681Z,186.97
2019-03-24T08:37:10.429Z,186.50
2019-03-24T08:39:38.165Z,184.60
2019-03-24T08:42:06.137Z,183.87
2019-03-24T08:44:33.772Z,186.88
2019-03-24T08:47:01.457Z,184.48
2019-03-24T08:49:30.210Z,184.20
2019-03-24T08:51:58.232Z,186.85
2019-03-24T08:54:25.804Z,186.90
2019-03-24T08:56:53.485Z,186.32
2019-03-24T08:59:21.098Z,186.60
2019-03-24T09:01:48.687Z,183.22
2019-03-24T09:04:16.413Z,188.42
2019-03-24T09:06:44.352Z,184.37
2019-03-24T09:09:12.108Z,182.90
2019-03-24T09:11:40.208Z,184.97
2019-03-24T09:14:08.944Z,186.75
2019-03-24T09:16:36.639Z,186.00
2019-03-24T09:19:04.495Z,187.22
2019-03-24T09:21:32.237Z,184.52
2019-03-24T09:24:01.222Z,186.82
2019-03-24T09:26:29.444Z,188.60
2019-03-24T09:28:59.195Z,187.82
2019-03-24T09:31:26.630Z,188.78
2019-03-24T09:33:54.283Z,187.43
2019-03-24T09:36:21.928Z,186.07
2019-03-24T09:38:49.510Z,188.40
2019-03-24T09:41:17.496Z,187.55
2019-03-24T09:43:45.104Z,185.65
2019-03-24T09:46:12.715Z,184.15
2019-03-24T09:48:40.391Z,188.20
2019-03-24T09:51:08.102Z,185.63
2019-03-24T09:53:35.711Z,186.50
2019-03-24T09:56:03.509Z,186.43
2019-03-24T09:58:31.201Z,186.65
2019-03-24T10:00:58.881Z,183.37
2019-03-24T10:03:26.885Z,185.55
2019-03-24T10:05:54.810Z,186.20
2019-03-24T10:08:22.932Z,186.60
2019-03-24T10:10:50.753Z,186.25
2019-03-24T10:13:19.648Z,186.35
2019-03-24T10:15:54.435Z,184.67
2019-03-24T10:18:24.784Z,184.60
2019-03-24T10:20:52.374Z,184.25
2019-03-24T10:23:28.443Z,187.97
2019-03-24T10:25:56.735Z,186.28
2019-03-24T10:28:24.672Z,176.27
2019-03-24T10:30:52.512Z,182.07
2019-03-24T10:33:20.195Z,185.05
2019-03-24T10:35:48.337Z,183.37
2019-03-24T10:38:16.248Z,183.45
2019-03-24T10:40:44.171Z,187.32
2019-03-24T10:43:14.437Z,187.35
2019-03-24T10:45:42.176Z,188.30
2019-03-24T10:48:09.933Z,185.90
2019-03-24T10:50:37.508Z,188.35
2019-03-24T10:53:05.345Z,187.20
2019-03-24T10:55:33.004Z,184.10
2019-03-24T10:58:00.944Z,185.18
2019-03-24T11:00:42.334Z,183.62
2019-03-24T11:03:12.196Z,188.18
2019-03-24T11:05:39.827Z,181.30
2019-03-24T11:08:08.690Z,182.82
2019-03-24T11:10:36.341Z,185.95
2019-03-24T11:13:03.951Z,182.27
2019-03-24T11:15:31.900Z,186.22
2019-03-24T11:18:01.184Z,185.40
2019-03-24T11:20:30.149Z,185.20
2019-03-24T11:22:58.914Z,188.18
2019-03-24T11:25:26.720Z,188.12
2019-03-24T11:27:54.361Z,190.00
2019-03-24T11:30:22.460Z,188.80
2019-03-24T11:32:50.049Z,189.07
2019-03-24T11:35:17.815Z,188.80
2019-03-24T11:37:45.491Z,183.62
2019-03-24T11:40:13.483Z,181.20
2019-03-24T11:42:41.178Z,187.72
2019-03-24T11:45:10.175Z,188.85
2019-03-24T11:47:37.972Z,186.28
2019-03-24T11:50:06.869Z,190.18
2019-03-24T11:52:34.911Z,188.18
2019-03-24T11:55:02.726Z,190.18
2019-03-24T11:57:30.406Z,190.40
2019-03-24T11:59:58.668Z,193.55
2019-03-24T12:02:26.446Z,190.28
2019-03-24T12:04:54.089Z,192.37
2019-03-24T12:07:22.165Z,195.43
2019-03-24T12:09:49.784Z,194.85
2019-03-24T12:12:17.403Z,190.75
2019-03-24T12:14:45.129Z,189.25
2019-03-24T12:17:13.281Z,189.25
2019-03-24T12:19:40.995Z,188.87
2019-03-24T12:22:08.742Z,192.98
2019-03-24T12:24:36.340Z,191.43
2019-03-24T12:27:05.878Z,191.28
2019-03-24T12:29:33.562Z,192.07
2019-03-24T12:32:01.341Z,189.70
2019-03-24T12:34:29.013Z,188.85
2019-03-24T12:36:56.638Z,188.25
2019-03-24T12:39:24.274Z,185.82
2019-03-24T12:41:51.896Z,190.43
2019-03-24T12:44:21.244Z,183.85
2019-03-24T12:46:50.071Z,186.92
2019-03-24T12:49:17.750Z,186.52
2019-03-24T12:51:45.413Z,188.03
2019-03-24T12:54:13.186Z,185.35
2019-03-24T12:56:41.085Z,185.37
2019-03-24T12:59:08.862Z,186.05
2019-03-24T13:01:36.483Z,182.45
2019-03-24T13:04:04.741Z,183.75
2019-03-24T13:06:35.793Z,186.80
2019-03-24T13:09:04.533Z,182.88
2019-03-24T13:11:33.529Z,183.90
2019-03-24T13:14:01.191Z,184.82
2019-03-24T13:16:29.274Z,181.05
2019-03-24T13:18:57.030Z,183.45
2019-03-24T13:21:27.314Z,184.60
2019-03-24T13:23:55.112Z,179.90
2019-03-24T13:26:22.778Z,182.35
2019-03-24T13:28:50.428Z,181.47
2019-03-24T13:31:18.635Z,181.20
2019-03-24T13:33:47.162Z,177.80
2019-03-24T13:36:14.915Z,182.47
2019-03-24T13:38:42.536Z,185.07
2019-03-24T13:41:12.072Z,181.05
2019-03-24T13:43:39.830Z,178.15
2019-03-24T13:46:07.799Z,184.63
2019-03-24T13:48:35.453Z,182.93
2019-03-24T13:51:03.205Z,179.80
2019-03-24T13:53:30.794Z,186.00
2019-03-24T13:55:58.389Z,191.35
2019-03-24T13:58:26.114Z,184.10
2019-03-24T14:00:53.808Z,183.82
2019-03-24T14:03:21.408Z,183.03
2019-03-24T14:05:49.618Z,185.82
2019-03-24T14:08:17.267Z,184.87
2019-03-24T14:10:44.866Z,183.07
2019-03-24T14:13:12.951Z,180.75
2019-03-24T14:15:40.612Z,182.82
2019-03-24T14:18:08.416Z,184.75
2019-03-24T14:20:43.277Z,187.97
2019-03-24T14:23:05.860Z,182.57
2019-03-24T14:25:33.493Z,184.57
2019-03-24T14:28:01.562Z,184.60
2019-03-24T14:30:57.536Z,182.82
2019-03-24T14:33:25.303Z,180.60
2019-03-24T14:35:52.997Z,186.20
2019-03-24T14:38:20.719Z,186.67
2019-03-24T14:40:48.695Z,188.18
2019-03-24T14:43:16.676Z,183.80
2019-03-24T14:45:45.874Z,183.93
2019-03-24T14:48:13.586Z,185.85
2019-03-24T14:50:41.217Z,182.53
2019-03-24T14:53:08.957Z,189.47
2019-03-24T14:55:36.678Z,179.07
2019-03-24T14:58:04.460Z,183.47
2019-03-24T15:00:36.551Z,183.07
2019-03-24T15:03:04.869Z,177.55
2019-03-24T15:05:33.168Z,179.78
2019-03-24T15:08:04.000Z,178.30
2019-03-24T15:10:31.748Z,179.47
2019-03-24T15:12:59.412Z,178.07
2019-03-24T15:15:27.508Z,177.05
2019-03-24T15:17:55.342Z,174.25
2019-03-24T15:20:22.993Z,177.07
2019-03-24T15:22:51.249Z,175.12
2019-03-24T15:25:18.862Z,176.53
2019-03-24T15:27:46.612Z,177.20
2019-03-24T15:30:14.603Z,175.70
2019-03-24T15:32:42.370Z,175.47
2019-03-24T15:35:10.222Z,173.95
2019-03-24T15:37:38.316Z,168.60
2019-03-24T15:40:07.433Z,174.90
2019-03-24T15:42:35.250Z,173.87
2019-03-24T15:45:03.966Z,171.05
2019-03-24T15:47:31.556Z,170.70
2019-03-24T15:49:59.366Z,169.57
2019-03-24T15:52:27.123Z,170.50
2019-03-24T15:54:54.993Z,169.40
2019-03-24T15:57:22.726Z,172.80
2019-03-24T15:59:50.558Z,167.22
2019-03-24T16:02:18.496Z,165.80
2019-03-24T16:04:46.499Z,170.07
2019-03-24T16:07:14.201Z,168.95
2019-03-24T16:09:41.875Z,167.37
2019-03-24T16:12:09.703Z,168.93
2019-03-24T16:14:37.356Z,168.93
2019-03-24T16:17:05.036Z,167.62
2019-03-24T16:19:33.186Z,169.43
2019-03-24T16:22:02.014Z,162.80
2019-03-24T16:24:29.711Z,165.30
2019-03-24T16:26:58.839Z,166.68
2019-03-24T16:29:26.502Z,168.75
2019-03-24T16:31:54.555Z,166.85
2019-03-24T16:34:22.178Z,170.22
2019-03-24T16:37:11.131Z,169.45
2019-03-24T16:39:38.860Z,168.43
2019-03-24T16:42:06.527Z,168.82
2019-03-24T16:44:34.262Z,165.37
2019-03-24T16:47:02.389Z,166.18
2019-03-24T16:49:30.039Z,164.67
2019-03-24T16:52:04.229Z,168.10
2019-03-24T16:54:32.104Z,162.10
2019-03-24T16:56:59.809Z,160.65
2019-03-24T16:59:27.443Z,163.20
2019-03-24T17:01:55.336Z,162.75
2019-03-24T17:04:22.966Z,163.55
2019-03-24T17:06:50.962Z,161.90
2019-03-24T17:09:18.617Z,163.10
2019-03-24T17:11:46.327Z,167.20
2019-03-24T17:14:14.190Z,167.03
2019-03-24T17:16:42.034Z,163.03
2019-03-24T17:19:09.981Z,163.45
2019-03-24T17:21:49.906Z,163.25
2019-03-24T17:24:13.489Z,164.37
2019-03-24T17:26:41.135Z,164.57
2019-03-24T17:29:08.964Z,164.62
2019-03-24T17:31:39.158Z,166.70
2019-03-24T17:34:07.611Z,165.88
2019-03-24T17:36:35.359Z,163.75
2019-03-24T17:39:05.662Z,160.03
2019-03-24T17:41:33.406Z,163.60
2019-03-24T17:44:03.379Z,162.12
2019-03-24T17:46:31.124Z,164.00
2019-03-24T17:49:00.837Z,159.82
2019-03-24T17:51:31.352Z,163.40
2019-03-24T17:53:59.363Z,161.57
2019-03-24T17:56:27.078Z,161.92
2019-03-24T17:58:54.837Z,161.52
2019-03-24T18:01:22.464Z,162.18
2019-03-24T18:03:50.189Z,161.97
2019-03-24T18:06:17.837Z,160.03
2019-03-24T18:08:45.990Z,159.82
2019-03-24T18:11:13.741Z,163.47
2019-03-24T18:13:41.733Z,158.85
2019-03-24T18:16:09.543Z,157.88
2019-03-24T18:18:37.576Z,157.72
2019-03-24T18:21:05.376Z,160.88
2019-03-24T18:23:33.355Z,159.97
2019-03-24T18:26:01.834Z,159.48
2019-03-24T18:28:29.563Z,159.22
2019-03-24T18:30:58.561Z,158.20
2019-03-24T18:33:26.493Z,161.18
2019-03-24T18:35:54.676Z,191.53
2019-03-24T18:38:22.373Z,178.30
2019-03-24T18:40:50.206Z,174.07
2019-03-24T18:43:17.865Z,165.45
2019-03-24T18:45:45.708Z,166.28
2019-03-24T18:48:13.448Z,165.30
2019-03-24T18:50:41.399Z,165.43
2019-03-24T18:53:10.274Z,163.72
2019-03-24T18:55:39.644Z,163.05
2019-03-24T18:58:07.445Z,162.85
2019-03-24T19:00:35.177Z,161.75
2019-03-24T19:03:03.462Z,162.27
2019-03-24T19:05:31.521Z,162.95
2019-03-24T19:07:59.201Z,161.73
2019-03-24T19:10:27.844Z,164.22
2019-03-24T19:12:55.860Z,162.30
2019-03-24T19:15:23.551Z,162.07
2019-03-24T19:17:52.057Z,167.05
2019-03-24T19:20:20.012Z,169.90
2019-03-24T19:22:48.139Z,167.43
2019-03-24T19:25:16.016Z,162.22
2019-03-24T19:27:43.962Z,162.27
2019-03-24T19:30:13.868Z,162.92
2019-03-24T19:32:42.346Z,162.03
2019-03-24T19:35:10.406Z,165.12
2019-03-24T19:37:41.434Z,166.47
2019-03-24T19:40:25.227Z,170.32
2019-03-24T19:42:53.347Z,177.05
2019-03-24T19:45:21.257Z,177.97
2019-03-24T19:47:50.258Z,175.68
2019-03-24T19:50:18.089Z,170.45
2019-03-24T19:52:45.980Z,171.50
2019-03-24T19:55:16.378Z,181.57
2019-03-24T19:57:44.151Z,171.32
2019-03-24T20:00:13.016Z,168.70
2019-03-24T20:02:40.891Z,168.65
2019-03-24T20:05:09.289Z,166.47
2019-03-24T20:07:47.381Z,164.15
2019-03-24T20:10:07.143Z,164.90
2019-03-24T20:12:36.007Z,164.07
2019-03-24T20:15:04.631Z,164.13
2019-03-24T20:17:32.360Z,163.05
2019-03-24T20:20:00.353Z,160.45
2019-03-24T20:22:28.525Z,160.22
2019-03-24T20:24:56.331Z,155.60
2019-03-24T20:27:25.931Z,159.27
2019-03-24T20:29:53.624Z,160.35
2019-03-24T20:32:21.695Z,155.65
2019-03-24T20:34:49.505Z,153.23
2019-03-24T20:37:17.175Z,152.75
2019-03-24T20:39:46.769Z,159.27
2019-03-24T20:42:14.423Z,157.20
2019-03-24T20:44:42.220Z,156.10
2019-03-24T20:47:14.434Z,156.65
2019-03-24T20:49:42.183Z,152.50
2019-03-24T20:52:10.461Z,154.35
2019-03-24T20:54:41.259Z,152.27
2019-03-24T20:57:09.023Z,157.93
2019-03-24T20:59:36.900Z,152.27
2019-03-24T21:02:04.774Z,154.32
2019-03-24T21:04:32.625Z,154.23
2019-03-24T21:07:00.805Z,153.80
2019-03-24T21:09:28.674Z,156.18
2019-03-24T21:11:56.399Z,151.87
2019-03-24T21:14:26.299Z,153.15
2019-03-24T21:16:56.763Z,156.05
2019-03-24T21:19:24.429Z,151.53
2019-03-24T21:21:52.061Z,150.53
2019-03-24T21:24:19.703Z,153.70
2019-03-24T21:26:47.428Z,153.10
2019-03-24T21:29:15.101Z,153.07
2019-03-24T21:31:42.862Z,153.50
2019-03-24T21:34:11.206Z,154.30
2019-03-24T21:36:38.850Z,150.03
2019-03-24T21:39:07.022Z,153.32
2019-03-24T21:41:34.861Z,149.65
2019-03-24T21:44:02.479Z,150.50
2019-03-24T21:46:30.098Z,151.02
2019-03-24T21:48:58.201Z,150.03
2019-03-24T21:51:26.000Z,147.82
2019-03-24T21:53:53.844Z,150.38
2019-03-24T21:56:21.988Z,149.93
2019-03-24T21:58:49.721Z,148.17
2019-03-24T22:01:17.435Z,151.63
2019-03-24T22:03:45.368Z,149.70
2019-03-24T22:06:14.042Z,149.18
2019-03-24T22:08:41.925Z,149.45
2019-03-24T22:11:10.005Z,149.50
2019-03-24T22:13:37.917Z,150.15
2019-03-24T22:16:05.740Z,150.12
2019-03-24T22:18:33.452Z,151.63
2019-03-24T22:21:03.717Z,150.35
2019-03-24T22:23:31.606Z,150.03
2019-03-24T22:25:59.201Z,151.40
2019-03-24T22:28:26.825Z,151.12
2019-03-24T22:30:54.618Z,149.75
2019-03-24T22:33:22.378Z,149.40
2019-03-24T22:35:50.002Z,148.07
2019-03-24T22:38:17.635Z,149.32
2019-03-24T22:40:46.601Z,150.12
2019-03-24T22:43:14.673Z,148.78
2019-03-24T22:45:42.613Z,147.75
2019-03-24T22:48:10.334Z,149.50
2019-03-24T22:50:38.146Z,148.95
2019-03-24T22:53:05.899Z,150.80
2019-03-24T22:55:33.860Z,147.28
2019-03-24T22:58:01.477Z,147.20
2019-03-24T23:00:47.976Z,148.80
2019-03-24T23:03:17.057Z,147.60
2019-03-24T23:05:44.792Z,148.38
2019-03-24T23:08:12.758Z,147.78
2019-03-24T23:10:40.774Z,149.15
2019-03-24T23:13:08.374Z,145.57
2019-03-24T23:15:36.044Z,146.43
2019-03-24T23:18:03.651Z,147.17
2019-03-24T23:20:31.287Z,145.87
2019-03-24T23:22:59.280Z,147.13
2019-03-24T23:25:28.567Z,147.02
2019-03-24T23:27:56.397Z,146.70
2019-03-24T23:30:25.192Z,147.87
2019-03-24T23:32:53.715Z,148.07
2019-03-24T23:35:21.270Z,149.53
2019-03-24T23:37:49.342Z,147.00
2019-03-24T23:40:16.936Z,149.07
2019-03-24T23:42:44.686Z,147.00
2019-03-24T23:45:12.595Z,148.55
2019-03-24T23:47:40.241Z,146.00
2019-03-24T23:50:08.310Z,147.30
2019-03-24T23:52:36.638Z,148.40
2019-03-24T23:55:04.588Z,148.35
2019-03-24T23:57:32.167Z,147.78
2019-03-24T23:59:59.931Z,147.50
